Airport Name : Campbell River

Other Name : Campbell River

ICAO : CYBL

IATA : YBL

FAA :

Latitude : 49.950832

Longitude : -125.270833

Country : Canada

Local Date and Time : 4/26/2018 7:35:00 PM

 

TAF (Terminal Aerodrome Forecast)

TAF CYBL 270038Z 2701/2704 09005KT P6SM SKC BECMG 2701/2703 VRB03KT RMK NXT FCST WILL BE ISSUED AT 271445Z

 

METAR (METeorological Aerodrome Report)

CYBL 270200Z 00000KT 30SM SKC 23/05 A2992 RMK SLP135 DENSITY ALT 1400FT

CYBL 270100Z 09004KT 060V120 30SM SKC 25/M03 A2994 RMK SLP141 DENSITY ALT 1600FT

CYBL 270000Z 09005KT 050V120 30SM SKC 25/00 A2996 RMK SLP147 DENSITY ALT 1500FT

CYBL 262300Z 09005KT 070V130 30SM SKC 24/01 A2997 RMK SLP153 DENSITY ALT 1400FT